createdAt,value
2022-12-14T00:00:31.642Z,6.62
2022-12-14T00:03:19.544Z,6.35
2022-12-14T00:06:15.604Z,6.92
2022-12-14T00:09:05.181Z,6.03
2022-12-14T00:11:52.374Z,6.03
2022-12-14T00:14:39.949Z,6.78
2022-12-14T00:17:27.222Z,6.30
2022-12-14T00:20:14.748Z,6.08
2022-12-14T00:23:02.010Z,6.78
2022-12-14T00:25:49.646Z,6.03
2022-12-14T00:28:37.871Z,6.78
2022-12-14T00:31:26.309Z,6.58
2022-12-14T00:34:13.797Z,6.00
2022-12-14T00:37:01.189Z,5.70
2022-12-14T00:39:49.479Z,6.20
2022-12-14T00:42:36.929Z,6.20
2022-12-14T00:45:24.107Z,6.35
2022-12-14T00:48:12.637Z,5.55
2022-12-14T00:50:59.729Z,6.25
2022-12-14T00:53:47.225Z,6.10
2022-12-14T00:56:34.567Z,6.05
2022-12-14T00:59:27.096Z,6.15
2022-12-14T01:02:11.033Z,6.03
2022-12-14T01:04:58.435Z,6.12
2022-12-14T01:07:46.062Z,5.53
2022-12-14T01:10:35.107Z,5.10
2022-12-14T01:13:22.392Z,5.25
2022-12-14T01:16:12.613Z,5.87
2022-12-14T01:19:01.179Z,5.60
2022-12-14T01:21:48.200Z,6.40
2022-12-14T01:24:35.147Z,5.20
2022-12-14T01:27:22.234Z,5.50
2022-12-14T01:30:09.926Z,5.40
2022-12-14T01:32:57.229Z,6.00
2022-12-14T01:35:44.408Z,5.28
2022-12-14T01:38:31.730Z,6.20
2022-12-14T01:41:35.125Z,5.50
2022-12-14T01:44:25.417Z,6.00
2022-12-14T01:47:27.542Z,5.40
2022-12-14T01:50:30.027Z,5.47
2022-12-14T01:53:20.695Z,6.62
2022-12-14T01:56:08.118Z,5.80
2022-12-14T01:58:57.444Z,5.28
2022-12-14T02:01:45.336Z,5.65
2022-12-14T02:04:37.352Z,5.85
2022-12-14T02:07:26.257Z,4.90
2022-12-14T02:10:14.066Z,4.92
2022-12-14T02:13:27.464Z,5.45
2022-12-14T02:16:15.323Z,4.67
2022-12-14T02:19:02.749Z,5.33
2022-12-14T02:22:20.477Z,5.50
2022-12-14T02:25:27.638Z,5.65
2022-12-14T02:28:27.321Z,4.92
2022-12-14T02:31:41.875Z,5.17
2022-12-14T02:34:50.704Z,4.72
2022-12-14T02:38:00.762Z,5.45
2022-12-14T02:41:00.370Z,5.45
2022-12-14T02:43:59.578Z,5.10
2022-12-14T02:46:58.686Z,5.72
2022-12-14T02:49:51.897Z,5.42
2022-12-14T02:52:41.969Z,5.53
2022-12-14T02:55:33.370Z,5.92
2022-12-14T02:58:27.072Z,5.22
2022-12-14T03:01:18.423Z,5.25
2022-12-14T03:04:06.763Z,5.58
2022-12-14T03:07:03.182Z,5.50
2022-12-14T03:09:50.762Z,5.03
2022-12-14T03:12:41.199Z,4.95
2022-12-14T03:15:30.605Z,5.22
2022-12-14T03:18:20.879Z,5.72
2022-12-14T03:21:11.391Z,5.22
2022-12-14T03:24:00.600Z,5.35
2022-12-14T03:26:57.135Z,5.62
2022-12-14T03:29:47.866Z,5.17
2022-12-14T03:32:38.419Z,5.28
2022-12-14T03:35:31.256Z,5.10
2022-12-14T03:38:31.295Z,5.10
2022-12-14T03:41:30.532Z,5.28
2022-12-14T03:44:45.205Z,5.30
2022-12-14T03:47:40.085Z,5.25
2022-12-14T03:50:36.426Z,5.05
2022-12-14T03:53:44.456Z,5.50
2022-12-14T03:56:40.551Z,5.20
2022-12-14T03:59:40.137Z,4.58
2022-12-14T04:02:41.191Z,5.62
2022-12-14T04:05:31.647Z,5.80
2022-12-14T04:08:34.187Z,5.45
2022-12-14T04:11:41.474Z,5.37
2022-12-14T04:17:56.236Z,5.42
2022-12-14T04:20:56.060Z,5.05
2022-12-14T04:24:06.989Z,5.60
2022-12-14T04:26:57.525Z,5.83
2022-12-14T04:29:56.978Z,5.15
2022-12-14T04:32:59.306Z,5.50
2022-12-14T04:35:47.684Z,5.97
2022-12-14T04:38:37.897Z,5.37
2022-12-14T04:41:28.463Z,5.92
2022-12-14T04:44:24.397Z,5.70
2022-12-14T04:47:14.791Z,6.13
2022-12-14T04:50:05.361Z,5.92
2022-12-14T04:53:01.720Z,5.83
2022-12-14T04:55:52.059Z,5.72
2022-12-14T04:58:40.871Z,5.37
2022-12-14T05:01:49.143Z,5.42
2022-12-14T05:04:57.780Z,5.55
2022-12-14T05:07:57.243Z,5.90
2022-12-14T05:10:50.636Z,6.05
2022-12-14T05:13:41.005Z,5.37
2022-12-14T05:16:28.622Z,5.78
2022-12-14T05:19:16.605Z,6.00
2022-12-14T05:22:06.822Z,5.90
2022-12-14T05:24:54.198Z,5.97
2022-12-14T05:27:41.604Z,6.10
2022-12-14T05:30:29.627Z,5.67
2022-12-14T05:33:19.812Z,6.00
2022-12-14T05:36:07.356Z,6.75
2022-12-14T05:38:54.662Z,5.78
2022-12-14T05:41:43.016Z,6.10
2022-12-14T05:44:30.199Z,5.62
2022-12-14T05:47:17.644Z,5.78
2022-12-14T05:50:05.512Z,6.00
2022-12-14T05:52:54.802Z,5.87
2022-12-14T05:55:50.092Z,5.83
2022-12-14T05:58:38.329Z,5.58
2022-12-14T06:01:28.900Z,6.85
2022-12-14T06:04:17.218Z,6.65
2022-12-14T06:07:05.463Z,5.83
2022-12-14T06:09:52.657Z,6.35
2022-12-14T06:12:40.339Z,6.75
2022-12-14T06:15:33.805Z,6.87
2022-12-14T06:18:18.821Z,6.87
2022-12-14T06:21:06.476Z,6.37
2022-12-14T06:23:55.350Z,6.33
2022-12-14T06:26:43.472Z,6.53
2022-12-14T06:29:30.947Z,6.97
2022-12-14T06:32:18.558Z,6.12
2022-12-14T06:35:07.348Z,6.60
2022-12-14T06:37:54.546Z,6.75
2022-12-14T06:40:42.187Z,6.58
2022-12-14T06:43:31.286Z,6.47
2022-12-14T06:46:22.002Z,7.28
2022-12-14T06:49:11.126Z,7.33
2022-12-14T06:51:58.370Z,6.40
2022-12-14T06:54:45.482Z,7.37
2022-12-14T06:57:32.744Z,6.37
2022-12-14T07:00:22.914Z,6.28
2022-12-14T07:03:11.257Z,7.10
2022-12-14T07:06:00.594Z,7.20
2022-12-14T07:08:48.262Z,7.05
2022-12-14T07:11:35.948Z,7.12
2022-12-14T07:14:23.353Z,6.97
2022-12-14T07:17:10.673Z,6.72
2022-12-14T07:19:57.851Z,7.42
2022-12-14T07:22:49.268Z,6.95
2022-12-14T07:25:34.341Z,7.55
2022-12-14T07:28:22.544Z,7.03
2022-12-14T07:31:13.172Z,6.92
2022-12-14T07:34:01.079Z,7.08
2022-12-14T07:36:51.036Z,7.20
2022-12-14T07:39:38.666Z,7.42
2022-12-14T07:42:26.200Z,7.03
2022-12-14T07:45:13.796Z,6.97
2022-12-14T07:48:01.302Z,7.05
2022-12-14T07:50:48.447Z,7.72
2022-12-14T07:53:37.111Z,7.45
2022-12-14T07:56:30.256Z,6.60
2022-12-14T07:59:17.906Z,7.75
2022-12-14T08:02:05.020Z,7.83
2022-12-14T08:04:52.352Z,6.75
2022-12-14T08:07:39.650Z,7.70
2022-12-14T08:10:26.983Z,6.97
2022-12-14T08:13:14.782Z,7.08
2022-12-14T08:16:08.287Z,6.87
2022-12-14T08:18:57.109Z,8.00
2022-12-14T08:21:46.675Z,6.80
2022-12-14T08:24:33.694Z,7.70
2022-12-14T08:27:21.031Z,7.03
2022-12-14T08:30:09.337Z,7.95
2022-12-14T08:32:57.033Z,8.05
2022-12-14T08:35:44.127Z,7.20
2022-12-14T08:38:31.692Z,7.58
2022-12-14T08:41:19.183Z,7.60
2022-12-14T08:44:06.816Z,7.90
2022-12-14T08:46:54.333Z,8.08
2022-12-14T08:49:41.668Z,7.83
2022-12-14T08:52:28.901Z,8.28
2022-12-14T08:55:16.207Z,8.25
2022-12-14T08:58:03.537Z,9.28
2022-12-14T09:00:50.955Z,8.50
2022-12-14T09:03:38.326Z,8.85
2022-12-14T09:06:27.854Z,8.43
2022-12-14T09:09:16.754Z,8.10
2022-12-14T09:12:06.766Z,8.43
2022-12-14T09:14:53.965Z,8.63
2022-12-14T09:17:41.580Z,8.45
2022-12-14T09:20:28.676Z,9.45
2022-12-14T09:23:16.219Z,10.13
2022-12-14T09:26:09.520Z,9.18
2022-12-14T09:28:58.124Z,9.18
2022-12-14T09:31:45.747Z,12.05
2022-12-14T09:34:33.567Z,10.80
2022-12-14T09:37:21.029Z,10.15
2022-12-14T09:40:10.703Z,10.80
2022-12-14T09:43:04.458Z,10.25
2022-12-14T09:45:55.491Z,9.85
2022-12-14T09:48:43.359Z,9.35
2022-12-14T09:51:36.595Z,9.75
2022-12-14T09:54:33.318Z,8.68
2022-12-14T09:57:35.554Z,6.97
2022-12-14T10:00:23.497Z,10.53
2022-12-14T10:03:38.703Z,9.28
2022-12-14T10:06:41.432Z,9.90
2022-12-14T10:09:37.865Z,9.93
2022-12-14T10:12:33.914Z,9.45
2022-12-14T10:15:22.782Z,10.53
2022-12-14T10:18:56.908Z,9.13
2022-12-14T10:21:16.786Z,10.60
2022-12-14T10:24:07.259Z,10.45
2022-12-14T10:26:57.480Z,9.48
2022-12-14T10:30:11.574Z,11.00
2022-12-14T10:33:04.963Z,10.45
2022-12-14T10:35:55.197Z,9.95
2022-12-14T10:39:01.669Z,9.60
2022-12-14T10:41:57.571Z,8.70
2022-12-14T10:45:39.118Z,10.63
2022-12-14T10:47:54.303Z,10.20
2022-12-14T10:50:50.586Z,9.83
2022-12-14T10:54:02.407Z,8.50
2022-12-14T10:56:51.134Z,10.30
2022-12-14T10:59:55.622Z,9.43
2022-12-14T11:02:32.611Z,9.80
2022-12-14T11:05:26.979Z,9.20
2022-12-14T11:08:35.281Z,8.98
2022-12-14T11:11:25.687Z,9.38
2022-12-14T11:14:16.525Z,9.63
2022-12-14T11:17:05.494Z,9.83
2022-12-14T11:20:07.390Z,9.85
2022-12-14T11:22:57.586Z,9.20
2022-12-14T11:25:47.901Z,10.53
2022-12-14T11:28:56.587Z,9.00
2022-12-14T11:31:49.394Z,8.73
2022-12-14T11:34:39.323Z,9.20
2022-12-14T11:37:31.552Z,9.83
2022-12-14T11:40:21.975Z,8.60
2022-12-14T11:43:12.441Z,10.32
2022-12-14T11:46:00.224Z,8.25
2022-12-14T11:48:49.760Z,8.55
2022-12-14T11:51:37.027Z,8.85
2022-12-14T11:54:24.483Z,8.13
2022-12-14T11:57:23.826Z,8.40
2022-12-14T12:00:26.517Z,8.15
2022-12-14T12:03:17.328Z,8.70
2022-12-14T12:06:10.960Z,7.97
2022-12-14T12:09:01.219Z,9.00
2022-12-14T12:11:48.840Z,8.45
2022-12-14T12:14:40.515Z,7.53
2022-12-14T12:17:36.563Z,8.53
2022-12-14T12:20:30.243Z,9.13
2022-12-14T12:23:20.521Z,7.45
2022-12-14T12:26:26.252Z,8.08
2022-12-14T12:29:33.140Z,7.83
2022-12-14T12:32:23.995Z,6.37
2022-12-14T12:35:35.157Z,7.25
2022-12-14T12:38:43.688Z,9.00
2022-12-14T12:41:44.643Z,8.15
2022-12-14T12:45:01.541Z,7.53
2022-12-14T12:47:51.988Z,8.00
2022-12-14T12:50:42.139Z,9.58
2022-12-14T12:53:32.537Z,9.18
2022-12-14T12:56:34.876Z,9.40
2022-12-14T12:59:25.146Z,8.43
2022-12-14T13:02:34.281Z,8.68
2022-12-14T13:08:16.639Z,8.88
2022-12-14T13:11:25.550Z,8.18
2022-12-14T13:14:08.139Z,8.58
2022-12-14T13:17:06.879Z,7.87
2022-12-14T13:19:56.039Z,8.60
2022-12-14T13:22:43.958Z,8.05
2022-12-14T13:26:09.047Z,8.05
2022-12-14T13:29:02.484Z,8.43
2022-12-14T13:32:01.214Z,7.95
2022-12-14T13:35:14.328Z,8.78
2022-12-14T13:38:17.162Z,8.53
2022-12-14T13:41:10.657Z,8.80
2022-12-14T13:44:36.077Z,8.05
2022-12-14T13:47:21.702Z,8.00
2022-12-14T13:50:35.849Z,7.80
2022-12-14T13:53:18.436Z,8.08
2022-12-14T13:56:06.415Z,7.85
2022-12-14T13:58:55.774Z,8.38
2022-12-14T14:01:52.077Z,8.33
2022-12-14T14:04:40.444Z,7.45
2022-12-14T14:07:31.164Z,7.58
2022-12-14T14:10:39.806Z,8.70
2022-12-14T14:13:33.330Z,8.98
2022-12-14T14:16:28.703Z,9.48
2022-12-14T14:19:25.199Z,8.13
2022-12-14T14:22:29.764Z,8.50
2022-12-14T14:25:41.436Z,9.03
2022-12-14T14:28:31.198Z,8.43
2022-12-14T14:31:19.012Z,8.80
2022-12-14T14:34:06.341Z,8.50
2022-12-14T14:36:54.036Z,7.25
2022-12-14T14:40:07.313Z,9.25
2022-12-14T14:42:34.597Z,8.30
2022-12-14T14:45:36.723Z,9.23
2022-12-14T14:48:30.373Z,8.50
2022-12-14T14:51:29.617Z,8.48
2022-12-14T14:55:11.093Z,7.83
2022-12-14T14:57:35.430Z,9.43
2022-12-14T15:00:26.287Z,9.18
2022-12-14T15:03:16.565Z,9.55
2022-12-14T15:06:03.833Z,9.05
2022-12-14T15:09:00.406Z,9.68
2022-12-14T15:11:51.423Z,11.70
2022-12-14T15:14:48.254Z,11.55
2022-12-14T15:17:31.795Z,9.90
2022-12-14T15:20:30.420Z,9.48
2022-12-14T15:23:17.765Z,9.05
2022-12-14T15:26:17.802Z,9.08
2022-12-14T15:29:07.093Z,8.85
2022-12-14T15:32:00.151Z,9.08
2022-12-14T15:34:56.380Z,8.15
2022-12-14T15:37:56.426Z,8.50
2022-12-14T15:40:41.270Z,8.45
2022-12-14T15:43:29.346Z,8.90
2022-12-14T15:46:31.879Z,8.30
2022-12-14T15:49:22.194Z,8.70
2022-12-14T15:52:11.627Z,9.10
2022-12-14T15:55:01.511Z,8.53
2022-12-14T15:57:51.065Z,8.95
2022-12-14T16:00:41.115Z,9.35
2022-12-14T16:03:35.039Z,8.75
2022-12-14T16:06:24.477Z,8.83
2022-12-14T16:09:50.030Z,9.00
2022-12-14T16:12:45.364Z,9.00
2022-12-14T16:15:33.049Z,10.28
2022-12-14T16:18:20.470Z,10.10
2022-12-14T16:21:09.339Z,10.48
2022-12-14T16:23:56.938Z,10.48
2022-12-14T16:26:44.613Z,10.23
2022-12-14T16:29:35.641Z,10.35
2022-12-14T16:32:24.040Z,10.00
2022-12-14T16:35:23.526Z,9.73
2022-12-14T16:38:16.476Z,10.18
2022-12-14T16:41:05.199Z,9.80
2022-12-14T16:43:59.327Z,9.05
2022-12-14T16:47:04.600Z,9.10
2022-12-14T16:50:00.182Z,9.20
2022-12-14T16:52:47.837Z,10.00
2022-12-14T16:55:36.797Z,10.25
2022-12-14T16:58:23.767Z,9.65
2022-12-14T17:01:11.081Z,9.28
2022-12-14T17:04:01.937Z,10.60
2022-12-14T17:06:54.606Z,10.05
2022-12-14T17:09:42.151Z,9.85
2022-12-14T17:12:29.368Z,10.40
2022-12-14T17:15:18.924Z,10.00
2022-12-14T17:18:08.139Z,10.00
2022-12-14T17:20:55.586Z,10.08
2022-12-14T17:23:44.990Z,9.98
2022-12-14T17:26:33.282Z,9.83
2022-12-14T17:29:26.115Z,8.75
2022-12-14T17:32:15.534Z,9.25
2022-12-14T17:35:03.826Z,9.88
2022-12-14T17:37:51.863Z,10.30
2022-12-14T17:40:40.306Z,9.40
2022-12-14T17:43:28.680Z,10.23
2022-12-14T17:46:16.530Z,10.58
2022-12-14T17:49:06.805Z,9.60
2022-12-14T17:51:54.270Z,10.43
2022-12-14T17:54:42.617Z,10.45
2022-12-14T17:57:30.009Z,9.75
2022-12-14T18:00:43.924Z,9.98
2022-12-14T18:03:35.684Z,10.20
2022-12-14T18:06:23.896Z,10.88
2022-12-14T18:09:11.239Z,9.45
2022-12-14T18:12:22.751Z,10.43
2022-12-14T18:14:47.991Z,10.03
2022-12-14T18:17:35.374Z,10.70
2022-12-14T18:20:24.491Z,11.38
2022-12-14T18:23:16.617Z,10.20
2022-12-14T18:26:05.172Z,9.75
2022-12-14T18:28:55.354Z,9.80
2022-12-14T18:31:43.232Z,9.20
2022-12-14T18:34:30.613Z,10.18
2022-12-14T18:37:23.214Z,10.68
2022-12-14T18:40:08.146Z,9.68
2022-12-14T18:42:56.463Z,10.08
2022-12-14T18:45:44.020Z,11.63
2022-12-14T18:48:31.425Z,10.60
2022-12-14T18:51:25.957Z,9.75
2022-12-14T18:54:13.138Z,10.38
2022-12-14T18:57:00.660Z,10.23
2022-12-14T18:59:48.020Z,9.75
2022-12-14T19:02:35.742Z,10.75
2022-12-14T19:05:26.287Z,11.08
2022-12-14T19:08:13.183Z,9.88
2022-12-14T19:11:01.167Z,9.90
2022-12-14T19:13:48.388Z,11.43
2022-12-14T19:16:35.996Z,11.53
2022-12-14T19:19:26.590Z,11.48
2022-12-14T19:22:14.041Z,11.30
2022-12-14T19:25:01.260Z,11.20
2022-12-14T19:30:38.517Z,10.70
2022-12-14T19:33:26.942Z,11.10
2022-12-14T19:36:14.190Z,10.82
2022-12-14T19:39:01.562Z,11.38
2022-12-14T19:41:49.580Z,10.35
2022-12-14T19:44:37.199Z,10.10
2022-12-14T19:47:24.589Z,12.37
2022-12-14T19:50:14.125Z,10.70
2022-12-14T19:53:01.169Z,11.78
2022-12-14T19:55:53.103Z,11.38
2022-12-14T19:58:41.155Z,11.57
2022-12-14T20:01:30.278Z,11.55
2022-12-14T20:04:17.939Z,12.35
2022-12-14T20:07:05.237Z,11.53
2022-12-14T20:09:52.758Z,12.40
2022-12-14T20:12:40.005Z,12.07
2022-12-14T20:15:27.672Z,10.63
2022-12-14T20:18:14.949Z,11.68
2022-12-14T20:21:04.776Z,12.13
2022-12-14T20:23:51.970Z,12.18
2022-12-14T20:26:39.793Z,12.23
2022-12-14T20:29:27.681Z,12.65
2022-12-14T20:32:15.061Z,12.98
2022-12-14T20:35:02.443Z,13.32
2022-12-14T20:37:49.643Z,12.60
2022-12-14T20:40:38.915Z,12.43
2022-12-14T20:43:26.447Z,11.10
2022-12-14T20:46:34.287Z,11.22
2022-12-14T20:49:23.199Z,11.33
2022-12-14T20:52:13.453Z,11.68
2022-12-14T20:55:00.636Z,11.63
2022-12-14T20:57:47.903Z,12.53
2022-12-14T21:00:35.261Z,12.55
2022-12-14T21:03:22.438Z,12.30
2022-12-14T21:06:09.998Z,11.45
2022-12-14T21:09:04.789Z,11.15
2022-12-14T21:12:10.252Z,11.35
2022-12-14T21:14:59.459Z,12.00
2022-12-14T21:17:46.631Z,10.13
2022-12-14T21:20:34.198Z,11.63
2022-12-14T21:23:21.472Z,11.85
2022-12-14T21:26:08.756Z,11.12
2022-12-14T21:28:56.521Z,13.32
2022-12-14T21:31:45.525Z,13.38
2022-12-14T21:34:33.602Z,12.90
2022-12-14T21:37:20.918Z,10.48
2022-12-14T21:40:10.481Z,11.35
2022-12-14T21:42:57.905Z,10.50
2022-12-14T21:45:46.205Z,10.32
2022-12-14T21:48:33.681Z,10.90
2022-12-14T21:51:20.908Z,10.63
2022-12-14T21:54:08.193Z,10.98
2022-12-14T21:57:13.616Z,11.80
2022-12-14T22:00:01.315Z,11.65
2022-12-14T22:02:48.708Z,11.33
2022-12-14T22:05:40.540Z,11.22
2022-12-14T22:08:30.411Z,10.75
2022-12-14T22:11:17.937Z,11.35
2022-12-14T22:14:05.385Z,11.30
2022-12-14T22:16:54.042Z,10.80
2022-12-14T22:19:41.716Z,10.70
2022-12-14T22:22:28.948Z,9.78
2022-12-14T22:25:16.407Z,9.80
2022-12-14T22:28:03.922Z,10.20
2022-12-14T22:30:51.375Z,10.15
2022-12-14T22:33:39.023Z,9.93
2022-12-14T22:36:26.800Z,9.10
2022-12-14T22:39:14.734Z,10.48
2022-12-14T22:42:02.248Z,10.00
2022-12-14T22:44:50.281Z,9.98
2022-12-14T22:47:37.465Z,9.40
2022-12-14T22:50:24.929Z,9.08
2022-12-14T22:53:13.045Z,8.35
2022-12-14T22:56:03.270Z,9.43
2022-12-14T22:58:53.466Z,8.93
2022-12-14T23:01:41.603Z,9.20
2022-12-14T23:04:29.229Z,7.87
2022-12-14T23:07:16.503Z,8.28
2022-12-14T23:10:21.600Z,8.78
2022-12-14T23:13:26.871Z,8.90
2022-12-14T23:16:31.937Z,8.40
2022-12-14T23:19:37.008Z,8.75
2022-12-14T23:22:42.027Z,8.20
2022-12-14T23:25:47.778Z,8.23
2022-12-14T23:28:53.352Z,8.25
2022-12-14T23:31:58.911Z,8.43
2022-12-14T23:35:04.462Z,8.78
2022-12-14T23:38:10.016Z,9.35
2022-12-14T23:41:19.680Z,8.90
2022-12-14T23:44:24.674Z,8.55
2022-12-14T23:47:30.136Z,8.85
2022-12-14T23:50:35.593Z,8.00
2022-12-14T23:53:40.883Z,8.00
2022-12-14T23:56:46.121Z,8.45
2022-12-14T23:59:51.545Z,8.90
